sensor_id;sensor_type;location;lat;lon;timestamp;P1;durP1;ratioP1;P2;durP2;ratioP2
60859;SDS011;46694;54.382;9.708;2022-08-05T00:02:31;6.83;;;3.30;;
60859;SDS011;46694;54.382;9.708;2022-08-05T00:05:10;5.97;;;3.00;;
60859;SDS011;46694;54.382;9.708;2022-08-05T00:07:50;5.73;;;2.83;;
60859;SDS011;46694;54.382;9.708;2022-08-05T00:10:29;6.67;;;3.00;;
60859;SDS011;46694;54.382;9.708;2022-08-05T00:13:09;7.87;;;2.90;;
60859;SDS011;46694;54.382;9.708;2022-08-05T00:15:52;9.13;;;3.47;;
60859;SDS011;46694;54.382;9.708;2022-08-05T00:18:32;5.60;;;3.10;;
60859;SDS011;46694;54.382;9.708;2022-08-05T00:21:12;7.10;;;3.40;;
60859;SDS011;46694;54.382;9.708;2022-08-05T00:23:53;7.97;;;3.40;;
60859;SDS011;46694;54.382;9.708;2022-08-05T00:26:32;7.30;;;2.90;;
60859;SDS011;46694;54.382;9.708;2022-08-05T00:29:12;7.83;;;3.43;;
60859;SDS011;46694;54.382;9.708;2022-08-05T00:31:52;8.03;;;3.90;;
60859;SDS011;46694;54.382;9.708;2022-08-05T00:34:32;7.63;;;3.97;;
60859;SDS011;46694;54.382;9.708;2022-08-05T00:37:12;7.13;;;3.57;;
60859;SDS011;46694;54.382;9.708;2022-08-05T00:39:52;16.97;;;4.53;;
60859;SDS011;46694;54.382;9.708;2022-08-05T00:42:32;5.00;;;3.90;;
60859;SDS011;46694;54.382;9.708;2022-08-05T00:45:15;7.63;;;5.00;;
60859;SDS011;46694;54.382;9.708;2022-08-05T00:47:54;9.60;;;3.70;;
60859;SDS011;46694;54.382;9.708;2022-08-05T00:50:34;11.23;;;4.07;;
60859;SDS011;46694;54.382;9.708;2022-08-05T00:53:14;5.13;;;3.73;;
60859;SDS011;46694;54.382;9.708;2022-08-05T00:56:00;6.70;;;4.43;;
60859;SDS011;46694;54.382;9.708;2022-08-05T00:58:40;11.60;;;4.63;;
60859;SDS011;46694;54.382;9.708;2022-08-05T01:01:19;8.23;;;4.17;;
60859;SDS011;46694;54.382;9.708;2022-08-05T01:03:59;6.73;;;4.67;;
60859;SDS011;46694;54.382;9.708;2022-08-05T01:06:39;11.27;;;4.93;;
60859;SDS011;46694;54.382;9.708;2022-08-05T01:09:18;7.30;;;4.60;;
60859;SDS011;46694;54.382;9.708;2022-08-05T01:12:01;15.67;;;5.27;;
60859;SDS011;46694;54.382;9.708;2022-08-05T01:15:04;15.60;;;6.20;;
60859;SDS011;46694;54.382;9.708;2022-08-05T01:17:48;6.97;;;5.87;;
60859;SDS011;46694;54.382;9.708;2022-08-05T01:23:54;7.87;;;4.77;;
60859;SDS011;46694;54.382;9.708;2022-08-05T01:29:44;14.60;;;5.57;;
60859;SDS011;46694;54.382;9.708;2022-08-05T01:32:26;14.53;;;6.40;;
60859;SDS011;46694;54.382;9.708;2022-08-05T01:35:12;9.77;;;5.70;;
60859;SDS011;46694;54.382;9.708;2022-08-05T01:37:56;10.17;;;4.90;;
60859;SDS011;46694;54.382;9.708;2022-08-05T01:40:40;7.70;;;4.90;;
60859;SDS011;46694;54.382;9.708;2022-08-05T01:43:20;9.20;;;4.67;;
60859;SDS011;46694;54.382;9.708;2022-08-05T01:46:01;4.20;;;3.80;;
60859;SDS011;46694;54.382;9.708;2022-08-05T01:48:42;9.50;;;5.57;;
60859;SDS011;46694;54.382;9.708;2022-08-05T01:51:24;7.73;;;3.90;;
60859;SDS011;46694;54.382;9.708;2022-08-05T01:54:06;5.67;;;3.60;;
60859;SDS011;46694;54.382;9.708;2022-08-05T01:56:47;7.00;;;4.20;;
60859;SDS011;46694;54.382;9.708;2022-08-05T01:59:29;16.13;;;4.63;;
60859;SDS011;46694;54.382;9.708;2022-08-05T02:02:11;8.50;;;3.90;;
60859;SDS011;46694;54.382;9.708;2022-08-05T02:04:51;8.33;;;3.80;;
60859;SDS011;46694;54.382;9.708;2022-08-05T02:07:34;7.03;;;3.90;;
60859;SDS011;46694;54.382;9.708;2022-08-05T02:10:15;11.90;;;4.70;;
60859;SDS011;46694;54.382;9.708;2022-08-05T02:16:20;9.73;;;3.63;;
60859;SDS011;46694;54.382;9.708;2022-08-05T02:19:10;7.27;;;3.53;;
60859;SDS011;46694;54.382;9.708;2022-08-05T02:22:18;11.70;;;4.70;;
60859;SDS011;46694;54.382;9.708;2022-08-05T02:25:21;10.90;;;4.00;;
60859;SDS011;46694;54.382;9.708;2022-08-05T02:28:04;6.93;;;3.90;;
60859;SDS011;46694;54.382;9.708;2022-08-05T02:30:47;7.87;;;3.97;;
60859;SDS011;46694;54.382;9.708;2022-08-05T02:33:36;9.00;;;4.00;;
60859;SDS011;46694;54.382;9.708;2022-08-05T02:36:22;11.40;;;4.33;;
60859;SDS011;46694;54.382;9.708;2022-08-05T02:39:04;10.10;;;3.77;;
60859;SDS011;46694;54.382;9.708;2022-08-05T02:41:47;7.33;;;3.97;;
60859;SDS011;46694;54.382;9.708;2022-08-05T02:44:27;12.93;;;3.90;;
60859;SDS011;46694;54.382;9.708;2022-08-05T02:47:09;5.27;;;3.80;;
60859;SDS011;46694;54.382;9.708;2022-08-05T02:49:50;9.07;;;4.10;;
60859;SDS011;46694;54.382;9.708;2022-08-05T02:52:31;5.10;;;3.67;;
60859;SDS011;46694;54.382;9.708;2022-08-05T02:55:11;17.97;;;4.40;;
60859;SDS011;46694;54.382;9.708;2022-08-05T02:57:52;8.77;;;3.70;;
60859;SDS011;46694;54.382;9.708;2022-08-05T03:00:32;8.80;;;4.57;;
60859;SDS011;46694;54.382;9.708;2022-08-05T03:03:18;13.50;;;3.73;;
60859;SDS011;46694;54.382;9.708;2022-08-05T03:05:58;9.20;;;4.07;;
60859;SDS011;46694;54.382;9.708;2022-08-05T03:08:38;9.20;;;4.27;;
60859;SDS011;46694;54.382;9.708;2022-08-05T03:11:23;6.20;;;4.17;;
60859;SDS011;46694;54.382;9.708;2022-08-05T03:14:04;13.03;;;4.93;;
60859;SDS011;46694;54.382;9.708;2022-08-05T03:16:44;9.03;;;4.40;;
60859;SDS011;46694;54.382;9.708;2022-08-05T03:19:24;9.00;;;4.07;;
60859;SDS011;46694;54.382;9.708;2022-08-05T03:22:03;9.83;;;4.57;;
60859;SDS011;46694;54.382;9.708;2022-08-05T03:24:43;9.13;;;3.87;;
60859;SDS011;46694;54.382;9.708;2022-08-05T03:27:25;8.27;;;3.90;;
60859;SDS011;46694;54.382;9.708;2022-08-05T03:30:05;10.03;;;4.00;;
60859;SDS011;46694;54.382;9.708;2022-08-05T03:32:45;8.33;;;4.47;;
60859;SDS011;46694;54.382;9.708;2022-08-05T03:35:25;7.23;;;4.00;;
60859;SDS011;46694;54.382;9.708;2022-08-05T03:38:06;9.00;;;3.80;;
60859;SDS011;46694;54.382;9.708;2022-08-05T03:40:48;17.03;;;4.47;;
60859;SDS011;46694;54.382;9.708;2022-08-05T03:43:28;7.67;;;3.90;;
60859;SDS011;46694;54.382;9.708;2022-08-05T03:46:08;5.37;;;3.10;;
60859;SDS011;46694;54.382;9.708;2022-08-05T03:48:48;7.57;;;3.53;;
60859;SDS011;46694;54.382;9.708;2022-08-05T03:51:28;14.00;;;4.70;;
60859;SDS011;46694;54.382;9.708;2022-08-05T03:54:18;6.50;;;3.80;;
60859;SDS011;46694;54.382;9.708;2022-08-05T03:57:09;8.93;;;4.10;;
60859;SDS011;46694;54.382;9.708;2022-08-05T03:59:59;6.80;;;3.70;;
60859;SDS011;46694;54.382;9.708;2022-08-05T04:02:47;9.87;;;3.70;;
60859;SDS011;46694;54.382;9.708;2022-08-05T04:05:30;13.23;;;3.60;;
60859;SDS011;46694;54.382;9.708;2022-08-05T04:08:11;12.40;;;3.83;;
60859;SDS011;46694;54.382;9.708;2022-08-05T04:10:52;8.83;;;4.00;;
60859;SDS011;46694;54.382;9.708;2022-08-05T04:13:34;9.47;;;3.53;;
60859;SDS011;46694;54.382;9.708;2022-08-05T04:16:18;13.47;;;3.80;;
60859;SDS011;46694;54.382;9.708;2022-08-05T04:18:58;9.03;;;3.87;;
60859;SDS011;46694;54.382;9.708;2022-08-05T04:21:39;13.13;;;4.47;;
60859;SDS011;46694;54.382;9.708;2022-08-05T04:24:19;9.80;;;4.10;;
60859;SDS011;46694;54.382;9.708;2022-08-05T04:26:59;10.80;;;3.83;;
60859;SDS011;46694;54.382;9.708;2022-08-05T04:29:39;7.93;;;4.00;;
60859;SDS011;46694;54.382;9.708;2022-08-05T04:32:19;12.33;;;3.20;;
60859;SDS011;46694;54.382;9.708;2022-08-05T04:34:59;7.80;;;3.90;;
60859;SDS011;46694;54.382;9.708;2022-08-05T04:37:38;6.47;;;3.57;;
60859;SDS011;46694;54.382;9.708;2022-08-05T04:40:18;7.40;;;4.20;;
60859;SDS011;46694;54.382;9.708;2022-08-05T04:42:58;5.00;;;3.30;;
60859;SDS011;46694;54.382;9.708;2022-08-05T04:45:37;10.07;;;4.47;;
60859;SDS011;46694;54.382;9.708;2022-08-05T04:48:17;12.27;;;4.50;;
60859;SDS011;46694;54.382;9.708;2022-08-05T04:50:57;10.97;;;3.90;;
60859;SDS011;46694;54.382;9.708;2022-08-05T04:53:37;11.40;;;4.13;;
60859;SDS011;46694;54.382;9.708;2022-08-05T04:56:17;5.73;;;3.50;;
60859;SDS011;46694;54.382;9.708;2022-08-05T04:58:57;5.00;;;3.40;;
60859;SDS011;46694;54.382;9.708;2022-08-05T05:01:36;14.50;;;4.30;;
60859;SDS011;46694;54.382;9.708;2022-08-05T05:04:16;14.13;;;4.30;;
60859;SDS011;46694;54.382;9.708;2022-08-05T05:06:56;20.90;;;3.77;;
60859;SDS011;46694;54.382;9.708;2022-08-05T05:09:35;7.93;;;4.00;;
60859;SDS011;46694;54.382;9.708;2022-08-05T05:12:15;11.27;;;4.10;;
60859;SDS011;46694;54.382;9.708;2022-08-05T05:14:54;6.77;;;3.80;;
60859;SDS011;46694;54.382;9.708;2022-08-05T05:17:38;11.53;;;4.03;;
60859;SDS011;46694;54.382;9.708;2022-08-05T05:20:19;7.83;;;3.43;;
60859;SDS011;46694;54.382;9.708;2022-08-05T05:22:59;8.13;;;3.50;;
60859;SDS011;46694;54.382;9.708;2022-08-05T05:25:42;10.30;;;4.30;;
60859;SDS011;46694;54.382;9.708;2022-08-05T05:28:22;5.93;;;3.17;;
60859;SDS011;46694;54.382;9.708;2022-08-05T05:31:02;9.33;;;4.00;;
60859;SDS011;46694;54.382;9.708;2022-08-05T05:33:41;7.70;;;4.20;;
60859;SDS011;46694;54.382;9.708;2022-08-05T05:36:21;9.73;;;3.43;;
60859;SDS011;46694;54.382;9.708;2022-08-05T05:39:10;10.70;;;4.30;;
60859;SDS011;46694;54.382;9.708;2022-08-05T05:41:49;7.63;;;4.20;;
60859;SDS011;46694;54.382;9.708;2022-08-05T05:44:29;11.37;;;4.60;;
60859;SDS011;46694;54.382;9.708;2022-08-05T05:47:09;6.57;;;3.67;;
60859;SDS011;46694;54.382;9.708;2022-08-05T05:49:48;6.80;;;3.60;;
60859;SDS011;46694;54.382;9.708;2022-08-05T05:52:28;6.20;;;3.20;;
60859;SDS011;46694;54.382;9.708;2022-08-05T05:55:09;4.90;;;3.47;;
60859;SDS011;46694;54.382;9.708;2022-08-05T05:57:51;8.20;;;3.87;;
60859;SDS011;46694;54.382;9.708;2022-08-05T06:00:30;5.90;;;3.50;;
60859;SDS011;46694;54.382;9.708;2022-08-05T06:03:10;10.63;;;3.83;;
60859;SDS011;46694;54.382;9.708;2022-08-05T06:05:50;13.40;;;4.40;;
60859;SDS011;46694;54.382;9.708;2022-08-05T06:08:29;7.23;;;4.07;;
60859;SDS011;46694;54.382;9.708;2022-08-05T06:11:09;5.17;;;3.80;;
60859;SDS011;46694;54.382;9.708;2022-08-05T06:13:49;9.63;;;3.83;;
60859;SDS011;46694;54.382;9.708;2022-08-05T06:16:28;5.43;;;3.47;;
60859;SDS011;46694;54.382;9.708;2022-08-05T06:19:11;8.97;;;4.23;;
60859;SDS011;46694;54.382;9.708;2022-08-05T06:21:50;7.27;;;3.17;;
60859;SDS011;46694;54.382;9.708;2022-08-05T06:24:30;4.27;;;3.40;;
60859;SDS011;46694;54.382;9.708;2022-08-05T06:27:11;3.40;;;3.00;;
60859;SDS011;46694;54.382;9.708;2022-08-05T06:29:50;10.50;;;3.90;;
60859;SDS011;46694;54.382;9.708;2022-08-05T06:32:30;4.80;;;3.07;;
60859;SDS011;46694;54.382;9.708;2022-08-05T06:35:09;4.93;;;2.80;;
60859;SDS011;46694;54.382;9.708;2022-08-05T06:37:50;6.33;;;3.10;;
60859;SDS011;46694;54.382;9.708;2022-08-05T06:40:30;8.40;;;2.73;;
60859;SDS011;46694;54.382;9.708;2022-08-05T06:43:10;9.90;;;3.00;;
60859;SDS011;46694;54.382;9.708;2022-08-05T06:45:50;8.53;;;2.70;;
60859;SDS011;46694;54.382;9.708;2022-08-05T06:48:29;8.53;;;2.60;;
60859;SDS011;46694;54.382;9.708;2022-08-05T06:51:11;10.67;;;2.80;;
60859;SDS011;46694;54.382;9.708;2022-08-05T06:53:51;12.03;;;2.27;;
60859;SDS011;46694;54.382;9.708;2022-08-05T06:56:31;8.03;;;2.47;;
60859;SDS011;46694;54.382;9.708;2022-08-05T06:59:10;4.80;;;2.30;;
60859;SDS011;46694;54.382;9.708;2022-08-05T07:01:52;3.63;;;1.90;;
60859;SDS011;46694;54.382;9.708;2022-08-05T07:04:32;11.60;;;1.97;;
60859;SDS011;46694;54.382;9.708;2022-08-05T07:07:11;4.73;;;1.67;;
60859;SDS011;46694;54.382;9.708;2022-08-05T07:13:26;3.03;;;1.70;;
60859;SDS011;46694;54.382;9.708;2022-08-05T07:16:25;11.73;;;2.57;;
60859;SDS011;46694;54.382;9.708;2022-08-05T07:19:27;10.90;;;2.50;;
60859;SDS011;46694;54.382;9.708;2022-08-05T07:22:06;7.60;;;2.30;;
60859;SDS011;46694;54.382;9.708;2022-08-05T07:24:46;7.37;;;2.27;;
60859;SDS011;46694;54.382;9.708;2022-08-05T07:27:26;6.53;;;2.10;;
60859;SDS011;46694;54.382;9.708;2022-08-05T07:30:06;7.17;;;1.90;;
60859;SDS011;46694;54.382;9.708;2022-08-05T07:32:46;11.83;;;1.63;;
60859;SDS011;46694;54.382;9.708;2022-08-05T07:35:26;3.40;;;1.40;;
60859;SDS011;46694;54.382;9.708;2022-08-05T07:38:05;2.23;;;1.70;;
60859;SDS011;46694;54.382;9.708;2022-08-05T07:40:45;4.17;;;1.33;;
60859;SDS011;46694;54.382;9.708;2022-08-05T07:43:24;7.13;;;2.10;;
60859;SDS011;46694;54.382;9.708;2022-08-05T07:46:04;5.80;;;1.97;;
60859;SDS011;46694;54.382;9.708;2022-08-05T07:48:44;5.87;;;2.30;;
60859;SDS011;46694;54.382;9.708;2022-08-05T07:51:23;10.37;;;1.87;;
60859;SDS011;46694;54.382;9.708;2022-08-05T07:54:03;5.53;;;2.30;;
60859;SDS011;46694;54.382;9.708;2022-08-05T07:56:44;4.33;;;1.50;;
60859;SDS011;46694;54.382;9.708;2022-08-05T07:59:24;5.63;;;2.30;;
60859;SDS011;46694;54.382;9.708;2022-08-05T08:02:04;5.37;;;1.83;;
60859;SDS011;46694;54.382;9.708;2022-08-05T08:04:44;8.50;;;2.10;;
60859;SDS011;46694;54.382;9.708;2022-08-05T08:07:25;7.27;;;2.27;;
60859;SDS011;46694;54.382;9.708;2022-08-05T08:10:05;11.27;;;2.63;;
60859;SDS011;46694;54.382;9.708;2022-08-05T08:12:44;23.97;;;2.50;;
60859;SDS011;46694;54.382;9.708;2022-08-05T08:15:24;30.23;;;3.53;;
60859;SDS011;46694;54.382;9.708;2022-08-05T08:18:04;6.77;;;1.73;;
60859;SDS011;46694;54.382;9.708;2022-08-05T08:20:44;10.33;;;2.03;;
60859;SDS011;46694;54.382;9.708;2022-08-05T08:23:24;11.77;;;1.80;;
60859;SDS011;46694;54.382;9.708;2022-08-05T08:26:03;11.73;;;1.80;;
60859;SDS011;46694;54.382;9.708;2022-08-05T08:28:43;4.47;;;2.33;;
60859;SDS011;46694;54.382;9.708;2022-08-05T08:31:22;5.23;;;1.70;;
60859;SDS011;46694;54.382;9.708;2022-08-05T08:34:02;9.47;;;2.20;;
60859;SDS011;46694;54.382;9.708;2022-08-05T08:36:41;12.73;;;2.37;;
60859;SDS011;46694;54.382;9.708;2022-08-05T08:39:21;6.40;;;1.47;;
60859;SDS011;46694;54.382;9.708;2022-08-05T08:42:02;23.03;;;2.67;;
60859;SDS011;46694;54.382;9.708;2022-08-05T08:44:42;13.70;;;2.40;;
60859;SDS011;46694;54.382;9.708;2022-08-05T08:47:24;8.97;;;2.50;;
60859;SDS011;46694;54.382;9.708;2022-08-05T08:50:05;8.07;;;2.40;;
60859;SDS011;46694;54.382;9.708;2022-08-05T08:52:48;3.87;;;1.80;;
60859;SDS011;46694;54.382;9.708;2022-08-05T08:55:32;10.00;;;2.90;;
60859;SDS011;46694;54.382;9.708;2022-08-05T08:58:13;3.33;;;1.50;;
60859;SDS011;46694;54.382;9.708;2022-08-05T09:00:55;6.27;;;1.43;;
60859;SDS011;46694;54.382;9.708;2022-08-05T09:03:35;9.67;;;1.70;;
60859;SDS011;46694;54.382;9.708;2022-08-05T09:06:16;5.73;;;1.40;;
60859;SDS011;46694;54.382;9.708;2022-08-05T09:08:59;6.33;;;1.80;;
60859;SDS011;46694;54.382;9.708;2022-08-05T09:11:40;3.70;;;1.10;;
60859;SDS011;46694;54.382;9.708;2022-08-05T09:14:20;4.50;;;1.57;;
60859;SDS011;46694;54.382;9.708;2022-08-05T09:17:07;5.50;;;1.70;;
60859;SDS011;46694;54.382;9.708;2022-08-05T09:19:49;1.90;;;1.00;;
60859;SDS011;46694;54.382;9.708;2022-08-05T09:25:52;12.10;;;1.20;;
60859;SDS011;46694;54.382;9.708;2022-08-05T09:28:49;6.67;;;1.47;;
60859;SDS011;46694;54.382;9.708;2022-08-05T09:31:37;12.90;;;1.70;;
60859;SDS011;46694;54.382;9.708;2022-08-05T09:34:16;9.90;;;1.67;;
60859;SDS011;46694;54.382;9.708;2022-08-05T09:36:56;4.67;;;1.27;;
60859;SDS011;46694;54.382;9.708;2022-08-05T09:39:37;8.70;;;1.60;;
60859;SDS011;46694;54.382;9.708;2022-08-05T09:45:18;6.47;;;1.50;;
60859;SDS011;46694;54.382;9.708;2022-08-05T09:47:58;12.97;;;1.60;;
60859;SDS011;46694;54.382;9.708;2022-08-05T09:50:37;5.80;;;1.40;;
60859;SDS011;46694;54.382;9.708;2022-08-05T09:53:17;5.43;;;1.20;;
60859;SDS011;46694;54.382;9.708;2022-08-05T09:55:58;3.57;;;1.27;;
60859;SDS011;46694;54.382;9.708;2022-08-05T09:58:39;4.73;;;1.40;;
60859;SDS011;46694;54.382;9.708;2022-08-05T10:01:19;2.70;;;1.10;;
60859;SDS011;46694;54.382;9.708;2022-08-05T10:04:00;6.73;;;1.07;;
60859;SDS011;46694;54.382;9.708;2022-08-05T10:06:52;3.80;;;0.90;;
60859;SDS011;46694;54.382;9.708;2022-08-05T10:09:33;3.13;;;1.00;;
60859;SDS011;46694;54.382;9.708;2022-08-05T10:12:13;2.77;;;1.20;;
60859;SDS011;46694;54.382;9.708;2022-08-05T10:14:53;2.83;;;1.00;;
60859;SDS011;46694;54.382;9.708;2022-08-05T10:21:01;5.77;;;1.07;;
60859;SDS011;46694;54.382;9.708;2022-08-05T10:23:44;3.50;;;1.43;;
60859;SDS011;46694;54.382;9.708;2022-08-05T10:26:25;6.30;;;1.47;;
60859;SDS011;46694;54.382;9.708;2022-08-05T10:29:06;2.77;;;0.90;;
60859;SDS011;46694;54.382;9.708;2022-08-05T10:31:46;3.63;;;1.00;;
60859;SDS011;46694;54.382;9.708;2022-08-05T10:34:27;2.10;;;1.10;;
60859;SDS011;46694;54.382;9.708;2022-08-05T10:37:07;4.30;;;1.00;;
60859;SDS011;46694;54.382;9.708;2022-08-05T10:39:46;6.07;;;0.90;;
60859;SDS011;46694;54.382;9.708;2022-08-05T10:42:31;4.90;;;1.10;;
60859;SDS011;46694;54.382;9.708;2022-08-05T10:45:14;4.50;;;1.30;;
60859;SDS011;46694;54.382;9.708;2022-08-05T10:47:54;4.10;;;1.30;;
60859;SDS011;46694;54.382;9.708;2022-08-05T10:50:39;5.00;;;1.53;;
60859;SDS011;46694;54.382;9.708;2022-08-05T10:53:54;7.90;;;1.80;;
60859;SDS011;46694;54.382;9.708;2022-08-05T10:56:44;4.37;;;1.00;;
60859;SDS011;46694;54.382;9.708;2022-08-05T10:59:33;4.93;;;1.57;;
60859;SDS011;46694;54.382;9.708;2022-08-05T11:02:13;12.37;;;2.00;;
60859;SDS011;46694;54.382;9.708;2022-08-05T11:04:53;10.70;;;1.80;;
60859;SDS011;46694;54.382;9.708;2022-08-05T11:07:33;8.30;;;1.40;;
60859;SDS011;46694;54.382;9.708;2022-08-05T11:10:23;3.27;;;1.00;;
60859;SDS011;46694;54.382;9.708;2022-08-05T11:13:05;3.50;;;1.30;;
60859;SDS011;46694;54.382;9.708;2022-08-05T11:15:46;7.70;;;1.43;;
60859;SDS011;46694;54.382;9.708;2022-08-05T11:18:27;4.70;;;1.50;;
60859;SDS011;46694;54.382;9.708;2022-08-05T11:21:11;10.70;;;1.60;;
60859;SDS011;46694;54.382;9.708;2022-08-05T11:24:10;8.00;;;1.10;;
60859;SDS011;46694;54.382;9.708;2022-08-05T11:26:50;2.03;;;1.17;;
60859;SDS011;46694;54.382;9.708;2022-08-05T11:30:09;2.80;;;1.17;;
60859;SDS011;46694;54.382;9.708;2022-08-05T11:32:48;4.20;;;1.30;;
60859;SDS011;46694;54.382;9.708;2022-08-05T11:35:50;2.30;;;0.80;;
60859;SDS011;46694;54.382;9.708;2022-08-05T11:41:20;3.87;;;1.20;;
60859;SDS011;46694;54.382;9.708;2022-08-05T11:44:02;1.27;;;1.17;;
60859;SDS011;46694;54.382;9.708;2022-08-05T11:46:50;3.10;;;1.10;;
60859;SDS011;46694;54.382;9.708;2022-08-05T11:49:30;2.73;;;1.07;;
60859;SDS011;46694;54.382;9.708;2022-08-05T11:52:10;3.70;;;1.10;;
60859;SDS011;46694;54.382;9.708;2022-08-05T11:54:50;2.33;;;1.13;;
60859;SDS011;46694;54.382;9.708;2022-08-05T11:57:30;6.00;;;1.20;;
60859;SDS011;46694;54.382;9.708;2022-08-05T12:00:26;2.10;;;0.90;;
60859;SDS011;46694;54.382;9.708;2022-08-05T12:03:15;5.40;;;1.17;;
60859;SDS011;46694;54.382;9.708;2022-08-05T12:06:02;13.50;;;1.90;;
60859;SDS011;46694;54.382;9.708;2022-08-05T12:08:47;4.40;;;1.00;;
60859;SDS011;46694;54.382;9.708;2022-08-05T12:11:29;5.57;;;1.17;;
60859;SDS011;46694;54.382;9.708;2022-08-05T12:14:09;1.40;;;0.90;;
60859;SDS011;46694;54.382;9.708;2022-08-05T12:16:48;1.70;;;0.90;;
60859;SDS011;46694;54.382;9.708;2022-08-05T12:19:28;1.83;;;0.90;;
60859;SDS011;46694;54.382;9.708;2022-08-05T12:22:08;5.23;;;1.63;;
60859;SDS011;46694;54.382;9.708;2022-08-05T12:24:50;4.37;;;1.13;;
60859;SDS011;46694;54.382;9.708;2022-08-05T12:27:33;5.60;;;1.50;;
60859;SDS011;46694;54.382;9.708;2022-08-05T12:30:13;3.90;;;1.10;;
60859;SDS011;46694;54.382;9.708;2022-08-05T12:32:52;4.70;;;1.50;;
60859;SDS011;46694;54.382;9.708;2022-08-05T12:35:32;5.00;;;1.90;;
60859;SDS011;46694;54.382;9.708;2022-08-05T12:38:12;3.43;;;1.03;;
60859;SDS011;46694;54.382;9.708;2022-08-05T12:40:52;6.60;;;0.97;;
60859;SDS011;46694;54.382;9.708;2022-08-05T12:43:34;2.10;;;0.93;;
60859;SDS011;46694;54.382;9.708;2022-08-05T12:46:36;5.83;;;2.97;;
60859;SDS011;46694;54.382;9.708;2022-08-05T12:49:18;4.23;;;3.80;;
60859;SDS011;46694;54.382;9.708;2022-08-05T12:51:58;2.20;;;0.87;;
60859;SDS011;46694;54.382;9.708;2022-08-05T12:54:38;3.60;;;1.13;;
60859;SDS011;46694;54.382;9.708;2022-08-05T12:57:19;4.20;;;1.20;;
60859;SDS011;46694;54.382;9.708;2022-08-05T12:59:59;3.83;;;1.20;;
60859;SDS011;46694;54.382;9.708;2022-08-05T13:02:38;1.10;;;0.93;;
60859;SDS011;46694;54.382;9.708;2022-08-05T13:05:18;2.90;;;0.73;;
60859;SDS011;46694;54.382;9.708;2022-08-05T13:07:57;3.43;;;1.20;;
60859;SDS011;46694;54.382;9.708;2022-08-05T13:10:43;4.43;;;0.90;;
60859;SDS011;46694;54.382;9.708;2022-08-05T13:13:25;1.40;;;0.80;;
60859;SDS011;46694;54.382;9.708;2022-08-05T13:16:10;3.00;;;0.90;;
60859;SDS011;46694;54.382;9.708;2022-08-05T13:18:52;13.80;;;0.90;;
60859;SDS011;46694;54.382;9.708;2022-08-05T13:25:06;2.30;;;1.00;;
60859;SDS011;46694;54.382;9.708;2022-08-05T13:27:53;5.13;;;0.70;;
60859;SDS011;46694;54.382;9.708;2022-08-05T13:30:34;3.07;;;1.00;;
60859;SDS011;46694;54.382;9.708;2022-08-05T13:33:14;3.30;;;0.83;;
60859;SDS011;46694;54.382;9.708;2022-08-05T13:36:00;2.80;;;0.87;;
60859;SDS011;46694;54.382;9.708;2022-08-05T13:38:39;1.90;;;0.80;;
60859;SDS011;46694;54.382;9.708;2022-08-05T13:41:19;2.10;;;1.00;;
60859;SDS011;46694;54.382;9.708;2022-08-05T13:43:59;6.47;;;1.20;;
60859;SDS011;46694;54.382;9.708;2022-08-05T13:46:38;4.63;;;1.10;;
60859;SDS011;46694;54.382;9.708;2022-08-05T13:49:18;2.27;;;0.80;;
60859;SDS011;46694;54.382;9.708;2022-08-05T13:52:07;2.73;;;0.93;;
60859;SDS011;46694;54.382;9.708;2022-08-05T13:54:59;2.03;;;0.70;;
60859;SDS011;46694;54.382;9.708;2022-08-05T13:57:38;2.53;;;1.10;;
60859;SDS011;46694;54.382;9.708;2022-08-05T14:00:18;2.30;;;0.77;;
60859;SDS011;46694;54.382;9.708;2022-08-05T14:02:58;3.97;;;1.00;;
60859;SDS011;46694;54.382;9.708;2022-08-05T14:05:38;6.33;;;0.80;;
60859;SDS011;46694;54.382;9.708;2022-08-05T14:08:18;9.03;;;0.83;;
60859;SDS011;46694;54.382;9.708;2022-08-05T14:10:58;4.53;;;1.20;;
60859;SDS011;46694;54.382;9.708;2022-08-05T14:13:37;2.43;;;1.10;;
60859;SDS011;46694;54.382;9.708;2022-08-05T14:16:17;1.10;;;0.70;;
60859;SDS011;46694;54.382;9.708;2022-08-05T14:18:57;4.23;;;1.10;;
60859;SDS011;46694;54.382;9.708;2022-08-05T14:21:36;3.47;;;0.90;;
60859;SDS011;46694;54.382;9.708;2022-08-05T14:24:16;3.17;;;0.70;;
60859;SDS011;46694;54.382;9.708;2022-08-05T14:26:56;5.93;;;1.13;;
60859;SDS011;46694;54.382;9.708;2022-08-05T14:29:35;2.90;;;1.00;;
60859;SDS011;46694;54.382;9.708;2022-08-05T14:32:15;3.17;;;1.23;;
60859;SDS011;46694;54.382;9.708;2022-08-05T14:34:54;3.63;;;1.17;;
60859;SDS011;46694;54.382;9.708;2022-08-05T14:37:34;6.73;;;1.33;;
60859;SDS011;46694;54.382;9.708;2022-08-05T14:40:14;3.50;;;0.90;;
60859;SDS011;46694;54.382;9.708;2022-08-05T14:42:53;2.53;;;0.90;;
60859;SDS011;46694;54.382;9.708;2022-08-05T14:45:33;4.93;;;1.00;;
60859;SDS011;46694;54.382;9.708;2022-08-05T14:48:13;2.40;;;0.80;;
60859;SDS011;46694;54.382;9.708;2022-08-05T14:50:52;4.90;;;0.80;;
60859;SDS011;46694;54.382;9.708;2022-08-05T14:53:32;4.10;;;0.87;;
60859;SDS011;46694;54.382;9.708;2022-08-05T14:56:12;1.40;;;0.80;;
60859;SDS011;46694;54.382;9.708;2022-08-05T14:58:51;10.50;;;1.70;;
60859;SDS011;46694;54.382;9.708;2022-08-05T15:01:31;3.13;;;0.90;;
60859;SDS011;46694;54.382;9.708;2022-08-05T15:04:11;6.83;;;1.27;;
60859;SDS011;46694;54.382;9.708;2022-08-05T15:06:50;3.33;;;1.10;;
60859;SDS011;46694;54.382;9.708;2022-08-05T15:09:30;6.30;;;1.00;;
60859;SDS011;46694;54.382;9.708;2022-08-05T15:12:10;6.33;;;1.23;;
60859;SDS011;46694;54.382;9.708;2022-08-05T15:14:50;4.70;;;0.80;;
60859;SDS011;46694;54.382;9.708;2022-08-05T15:17:29;2.80;;;1.17;;
60859;SDS011;46694;54.382;9.708;2022-08-05T15:20:09;3.03;;;1.23;;
60859;SDS011;46694;54.382;9.708;2022-08-05T15:22:50;4.20;;;1.03;;
60859;SDS011;46694;54.382;9.708;2022-08-05T15:25:30;3.80;;;1.13;;
60859;SDS011;46694;54.382;9.708;2022-08-05T15:28:10;2.07;;;1.00;;
60859;SDS011;46694;54.382;9.708;2022-08-05T15:30:50;2.90;;;0.80;;
60859;SDS011;46694;54.382;9.708;2022-08-05T15:33:30;2.80;;;0.90;;
60859;SDS011;46694;54.382;9.708;2022-08-05T15:36:09;3.13;;;1.00;;
60859;SDS011;46694;54.382;9.708;2022-08-05T15:38:50;3.17;;;0.93;;
60859;SDS011;46694;54.382;9.708;2022-08-05T15:41:32;2.30;;;0.80;;
60859;SDS011;46694;54.382;9.708;2022-08-05T15:44:12;1.37;;;0.70;;
60859;SDS011;46694;54.382;9.708;2022-08-05T15:46:51;2.77;;;0.90;;
60859;SDS011;46694;54.382;9.708;2022-08-05T15:49:31;2.00;;;0.73;;
60859;SDS011;46694;54.382;9.708;2022-08-05T15:52:10;1.60;;;0.70;;
60859;SDS011;46694;54.382;9.708;2022-08-05T15:54:50;2.63;;;0.80;;
60859;SDS011;46694;54.382;9.708;2022-08-05T15:57:30;2.20;;;0.57;;
60859;SDS011;46694;54.382;9.708;2022-08-05T16:00:10;1.63;;;0.60;;
60859;SDS011;46694;54.382;9.708;2022-08-05T16:02:50;2.80;;;1.00;;
60859;SDS011;46694;54.382;9.708;2022-08-05T16:05:29;2.37;;;0.60;;
60859;SDS011;46694;54.382;9.708;2022-08-05T16:08:09;4.33;;;0.90;;
60859;SDS011;46694;54.382;9.708;2022-08-05T16:10:49;1.03;;;0.60;;
60859;SDS011;46694;54.382;9.708;2022-08-05T16:13:29;1.47;;;0.60;;
60859;SDS011;46694;54.382;9.708;2022-08-05T16:16:09;6.17;;;0.67;;
60859;SDS011;46694;54.382;9.708;2022-08-05T16:18:49;11.33;;;1.00;;
60859;SDS011;46694;54.382;9.708;2022-08-05T16:21:29;2.70;;;0.90;;
60859;SDS011;46694;54.382;9.708;2022-08-05T16:24:09;4.00;;;0.63;;
60859;SDS011;46694;54.382;9.708;2022-08-05T16:26:52;2.23;;;0.67;;
60859;SDS011;46694;54.382;9.708;2022-08-05T16:29:37;3.67;;;0.80;;
60859;SDS011;46694;54.382;9.708;2022-08-05T16:32:17;4.40;;;0.90;;
60859;SDS011;46694;54.382;9.708;2022-08-05T16:34:57;4.13;;;1.13;;
60859;SDS011;46694;54.382;9.708;2022-08-05T16:37:37;2.30;;;0.73;;
60859;SDS011;46694;54.382;9.708;2022-08-05T16:40:17;2.20;;;0.60;;
60859;SDS011;46694;54.382;9.708;2022-08-05T16:42:57;2.87;;;0.60;;